sensor_id;sensor_type;location;lat;lon;timestamp;temperature;humidity
47114;DHT22;32867;51.556;6.832;2024-02-28T00:04:42;3.90;45.00
47114;DHT22;32867;51.556;6.832;2024-02-28T00:09:42;4.10;51.10
47114;DHT22;32867;51.556;6.832;2024-02-28T00:14:43;4.20;33.40
47114;DHT22;32867;51.556;6.832;2024-02-28T00:19:44;4.20;19.90
47114;DHT22;32867;51.556;6.832;2024-02-28T00:24:44;3.90;22.10
47114;DHT22;32867;51.556;6.832;2024-02-28T00:29:45;3.90;19.90
47114;DHT22;32867;51.556;6.832;2024-02-28T00:34:47;4.00;21.90
47114;DHT22;32867;51.556;6.832;2024-02-28T00:39:47;3.90;21.50
47114;DHT22;32867;51.556;6.832;2024-02-28T00:44:48;4.00;15.90
47114;DHT22;32867;51.556;6.832;2024-02-28T00:49:49;4.00;12.40
47114;DHT22;32867;51.556;6.832;2024-02-28T00:54:49;4.00;9.80
47114;DHT22;32867;51.556;6.832;2024-02-28T00:59:50;3.70;8.90
47114;DHT22;32867;51.556;6.832;2024-02-28T01:04:50;2.40;99.90
47114;DHT22;32867;51.556;6.832;2024-02-28T01:09:51;2.10;99.90
47114;DHT22;32867;51.556;6.832;2024-02-28T01:14:51;1.80;99.90
47114;DHT22;32867;51.556;6.832;2024-02-28T01:19:52;2.00;1.00
47114;DHT22;32867;51.556;6.832;2024-02-28T01:24:53;2.70;99.90
47114;DHT22;32867;51.556;6.832;2024-02-28T01:29:53;3.10;99.90
47114;DHT22;32867;51.556;6.832;2024-02-28T01:34:54;3.40;99.90
47114;DHT22;32867;51.556;6.832;2024-02-28T01:39:55;3.50;99.90
47114;DHT22;32867;51.556;6.832;2024-02-28T01:44:55;3.50;99.90
47114;DHT22;32867;51.556;6.832;2024-02-28T01:49:56;3.20;99.90
47114;DHT22;32867;51.556;6.832;2024-02-28T01:54:57;2.50;1.00
47114;DHT22;32867;51.556;6.832;2024-02-28T01:59:58;2.40;1.00
47114;DHT22;32867;51.556;6.832;2024-02-28T02:04:59;2.80;1.00
47114;DHT22;32867;51.556;6.832;2024-02-28T02:10:00;3.20;1.00
47114;DHT22;32867;51.556;6.832;2024-02-28T02:15:01;3.30;1.00
47114;DHT22;32867;51.556;6.832;2024-02-28T02:20:02;3.30;1.00
47114;DHT22;32867;51.556;6.832;2024-02-28T02:25:04;3.40;99.90
47114;DHT22;32867;51.556;6.832;2024-02-28T02:30:05;3.60;99.90
47114;DHT22;32867;51.556;6.832;2024-02-28T02:35:06;3.60;1.00
47114;DHT22;32867;51.556;6.832;2024-02-28T02:40:07;3.80;1.00
47114;DHT22;32867;51.556;6.832;2024-02-28T02:45:08;3.90;1.00
47114;DHT22;32867;51.556;6.832;2024-02-28T02:50:09;4.00;1.00
47114;DHT22;32867;51.556;6.832;2024-02-28T02:55:10;4.10;1.00
47114;DHT22;32867;51.556;6.832;2024-02-28T03:00:11;4.00;99.90
47114;DHT22;32867;51.556;6.832;2024-02-28T03:05:12;4.10;1.00
47114;DHT22;32867;51.556;6.832;2024-02-28T03:10:12;3.70;1.00
47114;DHT22;32867;51.556;6.832;2024-02-28T03:15:13;3.70;1.00
47114;DHT22;32867;51.556;6.832;2024-02-28T03:20:14;3.00;1.00
47114;DHT22;32867;51.556;6.832;2024-02-28T03:25:15;3.70;1.00
47114;DHT22;32867;51.556;6.832;2024-02-28T03:30:15;3.50;1.00
47114;DHT22;32867;51.556;6.832;2024-02-28T03:35:16;3.40;1.00
47114;DHT22;32867;51.556;6.832;2024-02-28T03:40:17;3.70;1.00
47114;DHT22;32867;51.556;6.832;2024-02-28T03:45:17;3.90;1.00
47114;DHT22;32867;51.556;6.832;2024-02-28T03:50:20;4.00;1.00
47114;DHT22;32867;51.556;6.832;2024-02-28T03:55:20;4.00;1.00
47114;DHT22;32867;51.556;6.832;2024-02-28T04:00:21;3.80;1.00
47114;DHT22;32867;51.556;6.832;2024-02-28T04:05:22;3.40;1.00
47114;DHT22;32867;51.556;6.832;2024-02-28T04:10:23;3.50;1.00
47114;DHT22;32867;51.556;6.832;2024-02-28T04:15:23;3.50;11.10
47114;DHT22;32867;51.556;6.832;2024-02-28T04:20:26;3.70;6.40
47114;DHT22;32867;51.556;6.832;2024-02-28T04:25:27;3.80;1.00
47114;DHT22;32867;51.556;6.832;2024-02-28T04:30:28;3.90;16.40
47114;DHT22;32867;51.556;6.832;2024-02-28T04:35:28;3.90;17.10
47114;DHT22;32867;51.556;6.832;2024-02-28T04:40:29;3.70;99.90
47114;DHT22;32867;51.556;6.832;2024-02-28T04:45:30;3.70;99.90
47114;DHT22;32867;51.556;6.832;2024-02-28T04:50:30;3.90;99.90
47114;DHT22;32867;51.556;6.832;2024-02-28T04:55:31;4.00;99.90
47114;DHT22;32867;51.556;6.832;2024-02-28T05:00:31;4.20;99.90
47114;DHT22;32867;51.556;6.832;2024-02-28T05:05:32;4.20;99.90
47114;DHT22;32867;51.556;6.832;2024-02-28T05:10:33;4.00;99.90
47114;DHT22;32867;51.556;6.832;2024-02-28T05:15:34;4.20;99.90
47114;DHT22;32867;51.556;6.832;2024-02-28T05:20:35;4.20;99.90
47114;DHT22;32867;51.556;6.832;2024-02-28T05:25:35;4.10;99.90
47114;DHT22;32867;51.556;6.832;2024-02-28T05:30:36;4.20;99.90
47114;DHT22;32867;51.556;6.832;2024-02-28T05:35:37;4.40;99.90
47114;DHT22;32867;51.556;6.832;2024-02-28T05:40:38;4.30;99.90
47114;DHT22;32867;51.556;6.832;2024-02-28T05:45:38;4.00;99.90
47114;DHT22;32867;51.556;6.832;2024-02-28T05:50:39;3.80;99.90
47114;DHT22;32867;51.556;6.832;2024-02-28T05:55:40;3.50;99.90
47114;DHT22;32867;51.556;6.832;2024-02-28T06:00:40;3.70;99.90
47114;DHT22;32867;51.556;6.832;2024-02-28T06:05:41;4.10;99.90
47114;DHT22;32867;51.556;6.832;2024-02-28T06:10:42;4.20;99.90
47114;DHT22;32867;51.556;6.832;2024-02-28T06:15:47;4.20;99.90
47114;DHT22;32867;51.556;6.832;2024-02-28T06:20:47;3.90;99.90
47114;DHT22;32867;51.556;6.832;2024-02-28T06:25:48;4.10;99.90
47114;DHT22;32867;51.556;6.832;2024-02-28T06:30:49;4.10;99.90
47114;DHT22;32867;51.556;6.832;2024-02-28T06:35:50;4.00;99.90
47114;DHT22;32867;51.556;6.832;2024-02-28T06:40:50;4.00;99.90
47114;DHT22;32867;51.556;6.832;2024-02-28T06:45:51;3.90;99.90
47114;DHT22;32867;51.556;6.832;2024-02-28T06:50:51;3.90;99.90
47114;DHT22;32867;51.556;6.832;2024-02-28T06:55:52;4.10;99.90
47114;DHT22;32867;51.556;6.832;2024-02-28T07:00:53;4.10;99.90
47114;DHT22;32867;51.556;6.832;2024-02-28T07:05:53;4.10;99.90
47114;DHT22;32867;51.556;6.832;2024-02-28T07:10:55;3.90;99.90
47114;DHT22;32867;51.556;6.832;2024-02-28T07:15:55;4.00;99.90
47114;DHT22;32867;51.556;6.832;2024-02-28T07:20:57;4.00;99.90
47114;DHT22;32867;51.556;6.832;2024-02-28T07:25:58;4.10;99.90
47114;DHT22;32867;51.556;6.832;2024-02-28T07:30:58;4.10;99.90
47114;DHT22;32867;51.556;6.832;2024-02-28T07:35:59;4.30;99.90
47114;DHT22;32867;51.556;6.832;2024-02-28T07:41:01;3.80;99.90
47114;DHT22;32867;51.556;6.832;2024-02-28T07:46:02;3.70;99.90
47114;DHT22;32867;51.556;6.832;2024-02-28T07:51:09;3.80;99.90
47114;DHT22;32867;51.556;6.832;2024-02-28T07:56:17;4.10;99.90
47114;DHT22;32867;51.556;6.832;2024-02-28T08:01:18;3.80;99.90
47114;DHT22;32867;51.556;6.832;2024-02-28T08:06:18;3.90;99.90
47114;DHT22;32867;51.556;6.832;2024-02-28T08:11:19;4.00;99.90
47114;DHT22;32867;51.556;6.832;2024-02-28T08:16:20;4.10;99.90
47114;DHT22;32867;51.556;6.832;2024-02-28T08:21:20;3.10;1.00
47114;DHT22;32867;51.556;6.832;2024-02-28T08:26:21;4.10;99.90
47114;DHT22;32867;51.556;6.832;2024-02-28T08:36:22;3.90;99.90
47114;DHT22;32867;51.556;6.832;2024-02-28T08:41:23;4.50;99.90
47114;DHT22;32867;51.556;6.832;2024-02-28T08:46:24;4.50;99.90
47114;DHT22;32867;51.556;6.832;2024-02-28T08:51:24;4.50;99.90
47114;DHT22;32867;51.556;6.832;2024-02-28T08:56:25;4.80;99.90
47114;DHT22;32867;51.556;6.832;2024-02-28T09:01:25;4.60;99.90
47114;DHT22;32867;51.556;6.832;2024-02-28T09:06:26;4.70;99.90
47114;DHT22;32867;51.556;6.832;2024-02-28T09:11:27;4.70;99.90
47114;DHT22;32867;51.556;6.832;2024-02-28T09:16:28;4.80;99.90
47114;DHT22;32867;51.556;6.832;2024-02-28T09:21:29;5.00;99.90
47114;DHT22;32867;51.556;6.832;2024-02-28T09:26:29;5.30;99.90
47114;DHT22;32867;51.556;6.832;2024-02-28T09:31:30;5.20;99.90
47114;DHT22;32867;51.556;6.832;2024-02-28T09:36:31;5.20;99.90
47114;DHT22;32867;51.556;6.832;2024-02-28T09:41:31;5.20;99.90
47114;DHT22;32867;51.556;6.832;2024-02-28T09:46:33;5.50;99.90
47114;DHT22;32867;51.556;6.832;2024-02-28T09:51:37;5.50;78.50
47114;DHT22;32867;51.556;6.832;2024-02-28T09:56:38;5.50;24.70
47114;DHT22;32867;51.556;6.832;2024-02-28T10:01:43;5.50;53.70
47114;DHT22;32867;51.556;6.832;2024-02-28T10:06:46;5.60;1.00
47114;DHT22;32867;51.556;6.832;2024-02-28T10:11:50;5.70;1.00
47114;DHT22;32867;51.556;6.832;2024-02-28T10:16:50;6.70;1.00
47114;DHT22;32867;51.556;6.832;2024-02-28T10:21:52;6.30;5.50
47114;DHT22;32867;51.556;6.832;2024-02-28T10:26:53;6.00;1.00
47114;DHT22;32867;51.556;6.832;2024-02-28T10:31:57;6.30;1.00
47114;DHT22;32867;51.556;6.832;2024-02-28T10:36:58;6.00;1.00
47114;DHT22;32867;51.556;6.832;2024-02-28T10:42:00;6.00;1.00
47114;DHT22;32867;51.556;6.832;2024-02-28T10:47:01;6.10;1.00
47114;DHT22;32867;51.556;6.832;2024-02-28T10:52:03;6.20;1.00
47114;DHT22;32867;51.556;6.832;2024-02-28T10:57:05;6.30;1.00
47114;DHT22;32867;51.556;6.832;2024-02-28T11:02:06;6.60;1.00
47114;DHT22;32867;51.556;6.832;2024-02-28T11:07:07;6.60;99.90
47114;DHT22;32867;51.556;6.832;2024-02-28T11:12:24;6.60;99.90
47114;DHT22;32867;51.556;6.832;2024-02-28T11:17:29;6.70;1.00
47114;DHT22;32867;51.556;6.832;2024-02-28T11:22:29;6.60;99.90
47114;DHT22;32867;51.556;6.832;2024-02-28T11:27:33;6.90;99.90
47114;DHT22;32867;51.556;6.832;2024-02-28T11:32:33;6.90;99.90
47114;DHT22;32867;51.556;6.832;2024-02-28T11:37:34;6.50;99.90
47114;DHT22;32867;51.556;6.832;2024-02-28T11:42:35;6.70;99.90
47114;DHT22;32867;51.556;6.832;2024-02-28T11:47:36;6.90;99.90
47114;DHT22;32867;51.556;6.832;2024-02-28T11:52:37;7.20;99.90
47114;DHT22;32867;51.556;6.832;2024-02-28T11:57:37;7.30;99.90
47114;DHT22;32867;51.556;6.832;2024-02-28T12:02:39;7.00;99.90
47114;DHT22;32867;51.556;6.832;2024-02-28T12:07:41;7.20;99.90
47114;DHT22;32867;51.556;6.832;2024-02-28T12:12:42;7.00;99.90
47114;DHT22;32867;51.556;6.832;2024-02-28T12:17:43;7.20;99.90
47114;DHT22;32867;51.556;6.832;2024-02-28T12:22:43;7.30;99.90
47114;DHT22;32867;51.556;6.832;2024-02-28T12:27:45;7.40;99.90
47114;DHT22;32867;51.556;6.832;2024-02-28T12:32:45;7.30;99.90
47114;DHT22;32867;51.556;6.832;2024-02-28T12:37:46;7.30;99.90
47114;DHT22;32867;51.556;6.832;2024-02-28T12:42:48;7.60;99.90
47114;DHT22;32867;51.556;6.832;2024-02-28T12:47:49;7.60;99.90
47114;DHT22;32867;51.556;6.832;2024-02-28T12:52:50;7.80;99.90
47114;DHT22;32867;51.556;6.832;2024-02-28T12:57:53;7.80;99.90
47114;DHT22;32867;51.556;6.832;2024-02-28T13:02:54;8.10;99.90
47114;DHT22;32867;51.556;6.832;2024-02-28T13:07:55;8.50;99.90
47114;DHT22;32867;51.556;6.832;2024-02-28T13:12:56;8.70;98.90
47114;DHT22;32867;51.556;6.832;2024-02-28T13:17:57;9.00;90.60
47114;DHT22;32867;51.556;6.832;2024-02-28T13:22:58;9.40;12.10
47114;DHT22;32867;51.556;6.832;2024-02-28T13:27:58;9.50;1.00
47114;DHT22;32867;51.556;6.832;2024-02-28T13:32:59;9.40;1.00
47114;DHT22;32867;51.556;6.832;2024-02-28T13:38:00;9.50;1.00
47114;DHT22;32867;51.556;6.832;2024-02-28T13:43:01;9.50;1.00
47114;DHT22;32867;51.556;6.832;2024-02-28T13:48:02;9.30;1.00
47114;DHT22;32867;51.556;6.832;2024-02-28T13:53:03;9.50;1.00
47114;DHT22;32867;51.556;6.832;2024-02-28T13:58:05;9.60;1.00
47114;DHT22;32867;51.556;6.832;2024-02-28T14:03:06;9.90;1.00
47114;DHT22;32867;51.556;6.832;2024-02-28T14:08:07;10.00;1.00
47114;DHT22;32867;51.556;6.832;2024-02-28T14:13:12;9.70;1.00
47114;DHT22;32867;51.556;6.832;2024-02-28T14:18:13;9.50;1.00
47114;DHT22;32867;51.556;6.832;2024-02-28T14:23:13;9.50;1.00
47114;DHT22;32867;51.556;6.832;2024-02-28T14:28:14;9.20;1.00
47114;DHT22;32867;51.556;6.832;2024-02-28T14:33:15;9.30;1.00
47114;DHT22;32867;51.556;6.832;2024-02-28T14:38:16;9.50;1.00
47114;DHT22;32867;51.556;6.832;2024-02-28T14:43:16;9.70;1.00
47114;DHT22;32867;51.556;6.832;2024-02-28T14:48:17;9.60;1.00
47114;DHT22;32867;51.556;6.832;2024-02-28T14:53:18;10.00;1.00
47114;DHT22;32867;51.556;6.832;2024-02-28T14:58:20;10.10;1.00
47114;DHT22;32867;51.556;6.832;2024-02-28T15:03:21;10.10;1.00
47114;DHT22;32867;51.556;6.832;2024-02-28T15:08:23;9.90;1.00
47114;DHT22;32867;51.556;6.832;2024-02-28T15:13:24;10.30;1.00
47114;DHT22;32867;51.556;6.832;2024-02-28T15:18:25;10.20;1.00
47114;DHT22;32867;51.556;6.832;2024-02-28T15:23:25;10.30;1.00
47114;DHT22;32867;51.556;6.832;2024-02-28T15:28:26;10.30;1.00
47114;DHT22;32867;51.556;6.832;2024-02-28T15:33:27;10.30;1.00
47114;DHT22;32867;51.556;6.832;2024-02-28T15:38:28;10.30;1.00
47114;DHT22;32867;51.556;6.832;2024-02-28T15:43:29;10.10;1.00
47114;DHT22;32867;51.556;6.832;2024-02-28T15:48:29;10.00;1.00
47114;DHT22;32867;51.556;6.832;2024-02-28T15:53:30;10.10;1.00
47114;DHT22;32867;51.556;6.832;2024-02-28T15:58:31;10.10;1.00
47114;DHT22;32867;51.556;6.832;2024-02-28T16:03:31;10.10;1.00
47114;DHT22;32867;51.556;6.832;2024-02-28T16:08:33;10.00;1.00
47114;DHT22;32867;51.556;6.832;2024-02-28T16:13:33;10.00;1.00
47114;DHT22;32867;51.556;6.832;2024-02-28T16:18:34;10.10;1.00
47114;DHT22;32867;51.556;6.832;2024-02-28T16:23:35;10.10;1.00
47114;DHT22;32867;51.556;6.832;2024-02-28T16:28:35;10.00;1.00
47114;DHT22;32867;51.556;6.832;2024-02-28T16:33:38;10.10;1.00
47114;DHT22;32867;51.556;6.832;2024-02-28T16:38:38;10.10;1.00
47114;DHT22;32867;51.556;6.832;2024-02-28T16:43:39;10.10;1.00
47114;DHT22;32867;51.556;6.832;2024-02-28T16:48:40;10.10;1.00
47114;DHT22;32867;51.556;6.832;2024-02-28T16:53:41;10.00;1.00
47114;DHT22;32867;51.556;6.832;2024-02-28T16:58:42;9.90;1.00
47114;DHT22;32867;51.556;6.832;2024-02-28T17:03:43;9.80;1.00
47114;DHT22;32867;51.556;6.832;2024-02-28T17:08:43;9.80;1.00
47114;DHT22;32867;51.556;6.832;2024-02-28T17:13:44;9.60;1.00
47114;DHT22;32867;51.556;6.832;2024-02-28T17:18:45;9.50;1.00
47114;DHT22;32867;51.556;6.832;2024-02-28T17:23:45;9.50;1.00
47114;DHT22;32867;51.556;6.832;2024-02-28T17:28:46;9.50;1.00
47114;DHT22;32867;51.556;6.832;2024-02-28T17:33:48;9.50;1.00
47114;DHT22;32867;51.556;6.832;2024-02-28T17:38:49;9.30;1.00
47114;DHT22;32867;51.556;6.832;2024-02-28T17:43:50;9.30;1.00
47114;DHT22;32867;51.556;6.832;2024-02-28T17:48:50;9.30;1.00
47114;DHT22;32867;51.556;6.832;2024-02-28T17:53:51;9.20;1.00
47114;DHT22;32867;51.556;6.832;2024-02-28T17:58:51;9.20;1.00
47114;DHT22;32867;51.556;6.832;2024-02-28T18:03:52;9.20;1.00
47114;DHT22;32867;51.556;6.832;2024-02-28T18:08:53;9.10;1.00
47114;DHT22;32867;51.556;6.832;2024-02-28T18:13:53;9.10;1.00
47114;DHT22;32867;51.556;6.832;2024-02-28T18:18:54;9.10;1.00
47114;DHT22;32867;51.556;6.832;2024-02-28T18:23:55;9.10;1.00
47114;DHT22;32867;51.556;6.832;2024-02-28T18:28:55;9.10;1.00
47114;DHT22;32867;51.556;6.832;2024-02-28T18:33:57;9.10;1.00
47114;DHT22;32867;51.556;6.832;2024-02-28T18:38:58;9.10;1.00
47114;DHT22;32867;51.556;6.832;2024-02-28T18:43:59;9.00;1.00
47114;DHT22;32867;51.556;6.832;2024-02-28T18:48:59;9.00;1.00
47114;DHT22;32867;51.556;6.832;2024-02-28T18:54:01;9.00;1.00
47114;DHT22;32867;51.556;6.832;2024-02-28T18:59:03;9.00;1.00
47114;DHT22;32867;51.556;6.832;2024-02-28T19:04:05;8.90;1.00
47114;DHT22;32867;51.556;6.832;2024-02-28T19:09:05;9.00;1.00
47114;DHT22;32867;51.556;6.832;2024-02-28T19:14:06;9.10;1.00
47114;DHT22;32867;51.556;6.832;2024-02-28T19:19:07;9.10;1.00
47114;DHT22;32867;51.556;6.832;2024-02-28T19:24:08;9.10;1.00
47114;DHT22;32867;51.556;6.832;2024-02-28T19:29:09;9.00;1.00
47114;DHT22;32867;51.556;6.832;2024-02-28T19:34:12;9.10;1.00
47114;DHT22;32867;51.556;6.832;2024-02-28T19:39:13;9.00;1.00
47114;DHT22;32867;51.556;6.832;2024-02-28T19:44:14;8.90;1.00
47114;DHT22;32867;51.556;6.832;2024-02-28T19:49:15;8.90;1.00
47114;DHT22;32867;51.556;6.832;2024-02-28T19:54:16;8.80;1.00
47114;DHT22;32867;51.556;6.832;2024-02-28T19:59:17;8.90;1.00
47114;DHT22;32867;51.556;6.832;2024-02-28T20:04:18;8.80;1.00
47114;DHT22;32867;51.556;6.832;2024-02-28T20:09:18;8.80;1.00
47114;DHT22;32867;51.556;6.832;2024-02-28T20:14:19;8.80;1.00
47114;DHT22;32867;51.556;6.832;2024-02-28T20:19:20;8.70;1.00
47114;DHT22;32867;51.556;6.832;2024-02-28T20:24:20;8.70;1.00
47114;DHT22;32867;51.556;6.832;2024-02-28T20:29:21;8.70;1.00
47114;DHT22;32867;51.556;6.832;2024-02-28T20:34:22;8.70;1.00
47114;DHT22;32867;51.556;6.832;2024-02-28T20:39:22;8.60;1.00
47114;DHT22;32867;51.556;6.832;2024-02-28T20:44:23;8.60;1.00
47114;DHT22;32867;51.556;6.832;2024-02-28T20:49:24;8.70;1.00
47114;DHT22;32867;51.556;6.832;2024-02-28T20:54:25;8.60;1.00
47114;DHT22;32867;51.556;6.832;2024-02-28T20:59:27;8.40;1.00
47114;DHT22;32867;51.556;6.832;2024-02-28T21:04:28;8.30;1.00
47114;DHT22;32867;51.556;6.832;2024-02-28T21:09:29;8.30;1.00
47114;DHT22;32867;51.556;6.832;2024-02-28T21:14:30;8.40;1.00
47114;DHT22;32867;51.556;6.832;2024-02-28T21:19:30;8.40;1.00
47114;DHT22;32867;51.556;6.832;2024-02-28T21:24:32;8.50;1.00
47114;DHT22;32867;51.556;6.832;2024-02-28T21:29:32;8.40;1.00
47114;DHT22;32867;51.556;6.832;2024-02-28T21:34:33;8.40;1.00
47114;DHT22;32867;51.556;6.832;2024-02-28T21:39:34;8.40;1.00
47114;DHT22;32867;51.556;6.832;2024-02-28T21:44:34;8.30;1.00
47114;DHT22;32867;51.556;6.832;2024-02-28T21:49:35;8.20;1.00
47114;DHT22;32867;51.556;6.832;2024-02-28T21:54:40;8.20;1.00
47114;DHT22;32867;51.556;6.832;2024-02-28T21:59:41;8.20;1.00
47114;DHT22;32867;51.556;6.832;2024-02-28T22:04:42;8.20;1.00
47114;DHT22;32867;51.556;6.832;2024-02-28T22:09:43;8.10;8.80
47114;DHT22;32867;51.556;6.832;2024-02-28T22:14:43;8.10;12.80
47114;DHT22;32867;51.556;6.832;2024-02-28T22:19:44;8.00;18.80
47114;DHT22;32867;51.556;6.832;2024-02-28T22:24:44;8.00;12.70
47114;DHT22;32867;51.556;6.832;2024-02-28T22:29:45;8.00;21.20
47114;DHT22;32867;51.556;6.832;2024-02-28T22:34:46;8.00;20.30
47114;DHT22;32867;51.556;6.832;2024-02-28T22:39:47;7.90;15.90
47114;DHT22;32867;51.556;6.832;2024-02-28T22:44:47;7.90;11.40
47114;DHT22;32867;51.556;6.832;2024-02-28T22:49:48;7.80;11.80
47114;DHT22;32867;51.556;6.832;2024-02-28T22:54:49;7.50;24.70
47114;DHT22;32867;51.556;6.832;2024-02-28T22:59:50;7.60;31.30
47114;DHT22;32867;51.556;6.832;2024-02-28T23:04:50;7.70;12.70
47114;DHT22;32867;51.556;6.832;2024-02-28T23:09:51;7.80;2.40
47114;DHT22;32867;51.556;6.832;2024-02-28T23:14:51;7.80;5.30
47114;DHT22;32867;51.556;6.832;2024-02-28T23:19:52;7.70;18.70
47114;DHT22;32867;51.556;6.832;2024-02-28T23:24:53;7.70;26.60
47114;DHT22;32867;51.556;6.832;2024-02-28T23:29:53;7.60;11.90
47114;DHT22;32867;51.556;6.832;2024-02-28T23:34:54;7.70;3.90
47114;DHT22;32867;51.556;6.832;2024-02-28T23:39:55;7.70;3.80
47114;DHT22;32867;51.556;6.832;2024-02-28T23:44:55;7.80;1.00
47114;DHT22;32867;51.556;6.832;2024-02-28T23:49:56;7.70;3.00
47114;DHT22;32867;51.556;6.832;2024-02-28T23:54:57;7.60;7.40
47114;DHT22;32867;51.556;6.832;2024-02-28T23:59:57;7.60;3.10
